Time;durP1;ratioP1;P1;durP2;ratioP2;P2;SDS_P1;SDS_P2;PMS_P1;PMS_P2;Temp;Humidity;BMP_temperature;BMP_pressure;BME280_temperature;BME280_humidity;BME280_pressure;Samples;Min_cycle;Max_cycle;Signal;HPM_P1;HPM_P2
2023/08/11 00:01:19;;;;;;;26.93;26.03;;;19.30;99.90;;;;;;5071404;28;20778;-64
2023/08/11 00:03:46;;;;;;;27.73;26.73;;;19.30;99.90;;;;;;5072517;28;20199;-64
2023/08/11 00:06:13;;;;;;;29.97;28.97;;;19.30;99.90;;;;;;5072352;28;20595;-64
2023/08/11 00:08:40;;;;;;;28.02;27.02;;;19.30;99.90;;;;;;5073228;28;20207;-64
2023/08/11 00:11:07;;;;;;;28.43;27.43;;;19.40;99.90;;;;;;5072961;28;20225;-64
2023/08/11 00:13:34;;;;;;;26.63;25.73;;;19.30;99.90;;;;;;5074066;28;20227;-64
2023/08/11 00:16:03;;;;;;;28.93;27.93;;;19.40;99.90;;;;;;5077024;28;20207;-64
2023/08/11 00:18:30;;;;;;;28.63;27.63;;;19.30;99.90;;;;;;5075089;28;20227;-64
2023/08/11 00:20:57;;;;;;;28.23;27.23;;;19.30;99.90;;;;;;5073264;28;20235;-64
2023/08/11 00:23:25;;;;;;;26.85;25.95;;;19.20;99.90;;;;;;5072783;28;20278;-64
2023/08/11 00:25:51;;;;;;;31.02;29.92;;;19.20;99.90;;;;;;5072418;28;20551;-64
2023/08/11 00:28:18;;;;;;;26.90;26.00;;;19.20;99.90;;;;;;5072256;28;20199;-64
2023/08/11 00:30:45;;;;;;;29.57;28.57;;;19.00;99.90;;;;;;5070909;28;20205;-64
2023/08/11 00:33:13;;;;;;;29.37;28.37;;;19.10;99.90;;;;;;5071823;28;20233;-64
2023/08/11 00:35:42;;;;;;;23.33;22.53;;;19.00;99.90;;;;;;5071895;28;20214;-63
2023/08/11 00:38:10;;;;;;;28.77;27.67;;;19.00;99.90;;;;;;5071900;28;20203;-64
2023/08/11 00:40:37;;;;;;;21.70;20.90;;;18.80;99.90;;;;;;5070242;28;20231;-64
2023/08/11 00:43:04;;;;;;;23.63;22.73;;;18.80;99.90;;;;;;5072069;28;20211;-64
2023/08/11 00:45:31;;;;;;;22.27;21.47;;;18.70;99.90;;;;;;5071438;28;20211;-66
2023/08/11 00:47:58;;;;;;;24.53;23.67;;;18.60;99.90;;;;;;5071303;28;20691;-63
2023/08/11 00:50:27;;;;;;;20.17;19.37;;;18.40;99.90;;;;;;5070152;28;20199;-64
2023/08/11 00:52:54;;;;;;;19.50;18.80;;;18.30;99.90;;;;;;5072502;28;20207;-63
2023/08/11 00:55:22;;;;;;;20.47;19.77;;;18.30;99.90;;;;;;5071930;28;20207;-64
2023/08/11 00:57:49;;;;;;;22.67;21.87;;;18.20;99.90;;;;;;5072212;28;20260;-64
2023/08/11 01:00:18;;;;;;;22.63;21.83;;;18.20;99.90;;;;;;5071605;28;21083;-65
2023/08/11 01:02:46;;;;;;;21.53;20.83;;;18.20;99.90;;;;;;5072675;28;20233;-65
2023/08/11 01:05:15;;;;;;;25.10;24.20;;;18.20;99.90;;;;;;5072062;28;20210;-65
2023/08/11 01:07:57;;;;;;;22.23;21.43;;;18.20;99.90;;;;;;5072630;28;20302;-65
2023/08/11 01:10:30;;;;;;;24.67;23.77;;;18.10;99.90;;;;;;5072593;28;20179;-65
2023/08/11 01:13:11;;;;;;;26.67;25.73;;;18.20;99.90;;;;;;5074265;28;20319;-65
2023/08/11 01:15:40;;;;;;;28.27;27.27;;;18.20;99.90;;;;;;5074690;28;20274;-65
2023/08/11 01:18:08;;;;;;;27.27;26.33;;;18.20;99.90;;;;;;5074079;28;20206;-65
2023/08/11 01:20:36;;;;;;;28.20;27.20;;;18.20;99.90;;;;;;5072296;28;20310;-64
2023/08/11 01:23:07;;;;;;;27.33;26.33;;;18.20;99.90;;;;;;5073027;28;20283;-64
2023/08/11 01:25:37;;;;;;;25.37;24.47;;;18.20;99.90;;;;;;5072808;28;20215;-65
2023/08/11 01:28:04;;;;;;;27.53;26.57;;;18.20;99.90;;;;;;5073023;28;20203;-64
2023/08/11 01:30:34;;;;;;;28.57;27.57;;;18.20;99.90;;;;;;5071719;28;20183;-63
2023/08/11 01:33:02;;;;;;;30.63;29.53;;;18.20;99.90;;;;;;5071775;28;20270;-65
2023/08/11 01:35:29;;;;;;;29.63;28.63;;;18.20;99.90;;;;;;5071952;28;20297;-65
2023/08/11 01:37:56;;;;;;;33.10;31.90;;;18.10;99.90;;;;;;5072405;28;20299;-65
2023/08/11 01:40:23;;;;;;;27.13;26.20;;;18.20;99.90;;;;;;5066371;28;20883;-65
2023/08/11 01:42:52;;;;;;;39.05;37.60;;;18.20;99.90;;;;;;5070360;28;20258;-65
2023/08/11 01:45:19;;;;;;;29.00;28.00;;;18.10;99.90;;;;;;5070613;28;20209;-65
2023/08/11 01:47:47;;;;;;;31.53;30.43;;;18.10;99.90;;;;;;5070138;28;20695;-65
2023/08/11 01:50:16;;;;;;;27.70;26.70;;;18.00;99.90;;;;;;5069140;28;20209;-66
2023/08/11 01:52:45;;;;;;;29.30;28.30;;;18.10;99.90;;;;;;5069529;28;20223;-64
2023/08/11 01:55:13;;;;;;;28.10;27.10;;;18.10;99.90;;;;;;5070100;28;20579;-64
2023/08/11 01:57:41;;;;;;;30.40;29.33;;;18.10;99.90;;;;;;5069981;28;20210;-64
2023/08/11 02:00:13;;;;;;;30.50;29.42;;;18.10;99.90;;;;;;5069447;28;20584;-65
2023/08/11 02:02:40;;;;;;;25.93;25.03;;;18.10;99.90;;;;;;5070960;28;20686;-64
2023/08/11 02:05:11;;;;;;;26.83;25.93;;;17.90;99.90;;;;;;5076515;28;20208;-66
2023/08/11 02:07:37;;;;;;;26.27;25.33;;;17.90;99.90;;;;;;5075897;28;20207;-63
2023/08/11 02:10:06;;;;;;;24.50;23.60;;;17.90;99.90;;;;;;5073924;28;20298;-65
2023/08/11 02:12:33;;;;;;;24.93;24.07;;;17.90;99.90;;;;;;5075710;28;20284;-65
2023/08/11 02:15:00;;;;;;;29.73;28.73;;;17.80;99.90;;;;;;5078360;28;20566;-64
2023/08/11 02:17:28;;;;;;;26.10;25.20;;;17.90;99.90;;;;;;5078808;28;20730;-65
2023/08/11 02:19:55;;;;;;;27.77;26.77;;;17.90;99.90;;;;;;5079193;28;20254;-66
2023/08/11 02:22:22;;;;;;;28.07;27.07;;;17.80;99.90;;;;;;5081096;22;20585;-67
2023/08/11 02:24:48;;;;;;;28.20;27.20;;;17.80;99.90;;;;;;5056164;28;20222;-67
2023/08/11 02:27:15;;;;;;;28.80;27.77;;;17.80;99.90;;;;;;5056275;28;20211;-66
2023/08/11 02:29:42;;;;;;;33.23;32.07;;;17.80;99.90;;;;;;5055183;28;20200;-67
2023/08/11 02:32:09;;;;;;;30.30;29.20;;;17.70;99.90;;;;;;5056325;28;20220;-66
2023/08/11 02:34:38;;;;;;;30.33;29.23;;;17.80;99.90;;;;;;5056142;28;20208;-68
2023/08/11 02:37:05;;;;;;;26.23;25.33;;;17.70;99.90;;;;;;5057227;28;20297;-68
2023/08/11 02:39:32;;;;;;;24.37;23.57;;;17.70;99.90;;;;;;5055495;28;20203;-67
2023/08/11 02:41:59;;;;;;;26.20;25.23;;;17.70;99.90;;;;;;5057171;28;20240;-69
2023/08/11 02:44:26;;;;;;;24.40;23.53;;;17.60;99.90;;;;;;5056841;28;20709;-66
2023/08/11 02:46:53;;;;;;;27.13;26.23;;;17.50;99.90;;;;;;5058209;28;20238;-68
2023/08/11 02:49:19;;;;;;;24.73;23.87;;;17.50;99.90;;;;;;5058909;28;20227;-67
2023/08/11 02:51:48;;;;;;;26.13;25.23;;;17.50;99.90;;;;;;5060678;28;20306;-67
2023/08/11 02:54:14;;;;;;;22.27;21.47;;;17.50;99.90;;;;;;5057128;28;20199;-66
2023/08/11 02:56:46;;;;;;;25.07;24.20;;;17.40;99.90;;;;;;5057387;28;20235;-68
2023/08/11 02:59:13;;;;;;;26.40;25.50;;;17.40;99.90;;;;;;5060159;28;20210;-68
2023/08/11 03:01:40;;;;;;;28.40;27.40;;;17.40;99.90;;;;;;5064475;28;20587;-67
2023/08/11 03:04:07;;;;;;;28.77;27.77;;;17.40;99.90;;;;;;5057637;28;20666;-68
2023/08/11 03:06:34;;;;;;;32.67;31.57;;;17.50;99.90;;;;;;5056516;28;20211;-68
2023/08/11 03:09:03;;;;;;;29.83;28.73;;;17.50;99.90;;;;;;5056507;28;20210;-70
2023/08/11 03:11:30;;;;;;;30.73;29.63;;;17.60;99.90;;;;;;5056536;28;20289;-67
2023/08/11 03:13:57;;;;;;;31.33;30.20;;;17.60;99.90;;;;;;5056771;28;20208;-66
2023/08/11 03:16:25;;;;;;;29.23;28.23;;;17.60;99.90;;;;;;5056559;28;20329;-69
2023/08/11 03:18:52;;;;;;;28.80;27.80;;;17.70;99.90;;;;;;5056179;28;20207;-67
2023/08/11 03:21:19;;;;;;;30.03;28.97;;;17.60;99.90;;;;;;5055537;28;20326;-67
2023/08/11 03:23:46;;;;;;;29.90;28.90;;;17.60;99.90;;;;;;5070218;28;20842;-68
2023/08/11 03:26:14;;;;;;;28.23;27.23;;;17.60;99.90;;;;;;5055691;28;20203;-67
2023/08/11 03:28:41;;;;;;;29.40;28.40;;;17.60;99.90;;;;;;5052917;28;20207;-67
2023/08/11 03:31:08;;;;;;;28.20;27.20;;;17.60;99.90;;;;;;5052234;28;20234;-69
2023/08/11 03:33:35;;;;;;;27.80;26.80;;;17.50;99.90;;;;;;5053975;28;20225;-67
2023/08/11 03:36:02;;;;;;;26.03;25.13;;;17.50;99.90;;;;;;5053677;28;20244;-67
2023/08/11 03:38:29;;;;;;;30.00;28.90;;;17.40;99.90;;;;;;5052776;28;20692;-68
2023/08/11 03:40:56;;;;;;;32.57;31.40;;;17.40;99.90;;;;;;5051432;28;20228;-69
2023/08/11 03:43:24;;;;;;;28.30;27.30;;;17.40;99.90;;;;;;5053030;28;20207;-66
2023/08/11 03:45:51;;;;;;;30.30;29.23;;;17.30;99.90;;;;;;5052717;28;20254;-66
2023/08/11 03:48:18;;;;;;;25.77;24.87;;;17.20;99.90;;;;;;5052430;28;20878;-67
2023/08/11 03:50:45;;;;;;;30.03;28.97;;;17.10;99.90;;;;;;5051897;28;20208;-66
2023/08/11 03:53:12;;;;;;;20.10;19.40;;;17.00;99.90;;;;;;5052357;28;20862;-66
2023/08/11 03:55:39;;;;;;;23.93;23.03;;;17.00;99.90;;;;;;5052320;28;20290;-67
2023/08/11 03:58:06;;;;;;;29.50;28.43;;;16.90;99.90;;;;;;5052265;28;20208;-69
2023/08/11 04:00:35;;;;;;;25.07;24.17;;;16.90;99.90;;;;;;5057357;28;20227;-69
2023/08/11 04:03:03;;;;;;;25.67;24.77;;;16.90;99.90;;;;;;5064950;28;20228;-66
2023/08/11 04:05:30;;;;;;;27.57;26.57;;;16.90;99.90;;;;;;5053831;28;20215;-67
2023/08/11 04:07:57;;;;;;;27.40;26.40;;;16.80;99.90;;;;;;5053844;28;20276;-69
2023/08/11 04:10:24;;;;;;;27.50;26.53;;;16.80;99.90;;;;;;5051969;28;20213;-66
2023/08/11 04:12:51;;;;;;;27.93;26.97;;;16.80;99.90;;;;;;5051910;28;20220;-67
2023/08/11 04:15:18;;;;;;;27.03;26.03;;;16.90;99.90;;;;;;5051325;28;20214;-66
2023/08/11 04:17:46;;;;;;;28.83;27.83;;;16.80;99.90;;;;;;5051404;28;20212;-67
2023/08/11 04:20:13;;;;;;;27.77;26.80;;;16.90;99.90;;;;;;5051046;28;20227;-69
2023/08/11 04:22:40;;;;;;;29.47;28.47;;;16.90;99.90;;;;;;5051741;28;20230;-67
2023/08/11 04:25:09;;;;;;;27.30;26.20;;;16.90;99.90;;;;;;5051603;28;20287;-68
2023/08/11 04:27:36;;;;;;;26.90;25.93;;;16.90;99.90;;;;;;5051452;28;20206;-68
2023/08/11 04:30:03;;;;;;;28.03;27.03;;;16.80;99.90;;;;;;5050853;28;20210;-66
2023/08/11 04:32:30;;;;;;;28.83;27.83;;;16.80;99.90;;;;;;5052066;28;20222;-66
2023/08/11 04:34:58;;;;;;;28.60;27.60;;;16.90;99.90;;;;;;5052872;28;20741;-67
2023/08/11 04:37:26;;;;;;;29.17;28.17;;;16.80;99.90;;;;;;5057600;28;20239;-68
2023/08/11 04:39:52;;;;;;;27.50;26.50;;;16.90;99.90;;;;;;5053955;28;20725;-67
2023/08/11 04:42:20;;;;;;;30.30;29.23;;;16.90;99.90;;;;;;5051295;28;20227;-67
2023/08/11 04:44:47;;;;;;;30.37;29.30;;;16.90;99.90;;;;;;5052440;28;20290;-67
2023/08/11 04:47:14;;;;;;;31.33;30.23;;;17.00;99.90;;;;;;5052076;28;20323;-68
2023/08/11 04:49:41;;;;;;;32.33;31.23;;;17.10;99.90;;;;;;5050206;28;20200;-67
2023/08/11 04:52:10;;;;;;;28.97;27.97;;;17.10;99.90;;;;;;5051150;28;20230;-67
2023/08/11 04:54:37;;;;;;;32.57;31.43;;;17.10;99.90;;;;;;5051282;28;20670;-68
2023/08/11 04:57:04;;;;;;;29.47;28.47;;;17.10;99.90;;;;;;5051733;28;20203;-66
2023/08/11 04:59:30;;;;;;;28.90;27.90;;;17.20;99.90;;;;;;5057271;28;20204;-68
2023/08/11 05:01:58;;;;;;;30.67;29.57;;;17.20;99.90;;;;;;5057308;28;20234;-67
2023/08/11 05:04:25;;;;;;;28.77;27.77;;;17.20;99.90;;;;;;5058576;28;20203;-67
2023/08/11 05:06:52;;;;;;;30.57;29.50;;;17.20;99.90;;;;;;5053396;28;20693;-67
2023/08/11 05:09:20;;;;;;;31.37;30.27;;;17.20;99.90;;;;;;5050413;28;20210;-66
2023/08/11 05:11:47;;;;;;;29.40;28.30;;;17.30;99.90;;;;;;5051677;28;20702;-67
2023/08/11 05:14:15;;;;;;;29.10;28.10;;;17.20;99.90;;;;;;5051995;28;20203;-65
2023/08/11 05:16:42;;;;;;;28.50;27.50;;;17.30;99.90;;;;;;5051931;28;20297;-65
2023/08/11 05:19:09;;;;;;;28.83;27.83;;;17.20;99.90;;;;;;5051279;28;20204;-67
2023/08/11 05:21:37;;;;;;;31.53;30.43;;;17.20;99.90;;;;;;5051594;28;20235;-66
2023/08/11 05:24:05;;;;;;;30.93;29.83;;;17.30;99.90;;;;;;5052047;28;20203;-65
2023/08/11 05:26:33;;;;;;;31.67;30.57;;;17.50;99.90;;;;;;5052538;28;20210;-66
2023/08/11 05:29:01;;;;;;;37.57;36.17;;;17.50;99.90;;;;;;5051360;28;20298;-66
2023/08/11 05:31:28;;;;;;;28.03;27.03;;;17.60;99.90;;;;;;5051520;28;20256;-65
2023/08/11 05:33:55;;;;;;;29.87;28.77;;;17.70;99.90;;;;;;5052149;28;20207;-67
2023/08/11 05:36:22;;;;;;;31.47;30.37;;;17.80;99.90;;;;;;5051628;28;20204;-66
2023/08/11 05:38:49;;;;;;;27.33;26.43;;;17.90;99.90;;;;;;5051249;28;20208;-68
2023/08/11 05:41:16;;;;;;;27.77;26.77;;;18.10;99.90;;;;;;5049505;28;20224;-69
2023/08/11 05:43:44;;;;;;;30.63;29.57;;;18.30;99.90;;;;;;5050305;28;20204;-66
2023/08/11 05:46:11;;;;;;;28.83;27.83;;;18.40;99.90;;;;;;5050151;28;20849;-65
2023/08/11 05:48:38;;;;;;;30.37;29.17;;;18.60;99.90;;;;;;5050232;28;20294;-65
2023/08/11 05:51:05;;;;;;;28.57;27.53;;;18.60;99.90;;;;;;5049838;28;20206;-65
2023/08/11 05:53:32;;;;;;;32.80;31.63;;;18.70;99.90;;;;;;5050669;28;20218;-68
2023/08/11 05:55:59;;;;;;;31.57;30.43;;;18.90;99.90;;;;;;5050322;28;20296;-66
2023/08/11 05:58:26;;;;;;;29.17;28.17;;;19.00;99.90;;;;;;5048656;28;20200;-67
2023/08/11 06:00:54;;;;;;;28.30;27.30;;;19.20;99.90;;;;;;5054789;28;20233;-66
2023/08/11 06:03:21;;;;;;;29.07;28.03;;;19.20;99.90;;;;;;5054198;28;20227;-66
2023/08/11 06:05:48;;;;;;;28.80;27.70;;;19.50;99.90;;;;;;5051041;28;20204;-69
2023/08/11 06:08:15;;;;;;;27.43;26.47;;;19.40;99.90;;;;;;5051147;28;20200;-68
2023/08/11 06:10:41;;;;;;;24.30;23.43;;;19.60;99.90;;;;;;5050391;28;20204;-69
2023/08/11 06:13:08;;;;;;;22.77;22.00;;;19.70;99.90;;;;;;5052819;28;20220;-68
2023/08/11 06:15:35;;;;;;;20.30;19.60;;;19.90;99.90;;;;;;5053120;28;20199;-67
2023/08/11 06:18:04;;;;;;;23.92;23.08;;;20.00;99.90;;;;;;5050062;28;20214;-66
2023/08/11 06:20:30;;;;;;;19.93;19.20;;;20.10;99.90;;;;;;5049033;28;20235;-67
2023/08/11 06:22:57;;;;;;;26.13;25.23;;;20.20;99.90;;;;;;5049635;28;20297;-66
2023/08/11 06:25:24;;;;;;;22.87;22.07;;;20.30;99.90;;;;;;5049963;28;20204;-66
2023/08/11 06:27:51;;;;;;;21.73;20.97;;;20.40;99.90;;;;;;5049755;28;20210;-66
2023/08/11 06:30:18;;;;;;;23.07;22.27;;;20.50;99.90;;;;;;5049299;28;20238;-66
2023/08/11 06:32:44;;;;;;;22.02;21.27;;;20.60;99.90;;;;;;5049543;28;20315;-67
2023/08/11 06:35:13;;;;;;;20.53;19.83;;;20.70;99.90;;;;;;5049609;28;20204;-65
2023/08/11 06:37:39;;;;;;;18.02;17.42;;;20.90;99.90;;;;;;5050052;28;20208;-64
2023/08/11 06:40:08;;;;;;;18.80;18.10;;;21.00;99.90;;;;;;5050161;28;20210;-67
2023/08/11 06:42:35;;;;;;;19.73;19.03;;;21.10;99.90;;;;;;5052750;28;20744;-69
2023/08/11 06:45:02;;;;;;;19.27;18.40;;;21.20;99.90;;;;;;5053558;28;20299;-68
2023/08/11 06:47:31;;;;;;;18.48;17.83;;;21.30;99.90;;;;;;5053992;28;20200;-68
2023/08/11 06:49:57;;;;;;;18.60;17.90;;;21.40;99.90;;;;;;5051611;28;20208;-66
2023/08/11 06:52:26;;;;;;;19.33;18.65;;;21.50;99.90;;;;;;5052567;28;20310;-67
2023/08/11 06:54:53;;;;;;;17.97;17.37;;;21.60;99.90;;;;;;5051226;28;20761;-67
2023/08/11 06:57:21;;;;;;;18.75;18.10;;;21.70;99.90;;;;;;5050608;28;20216;-66
2023/08/11 06:59:47;;;;;;;18.20;17.60;;;21.90;99.90;;;;;;5053528;28;20673;-66
2023/08/11 07:02:15;;;;;;;17.35;16.75;;;22.00;99.90;;;;;;5058037;28;20235;-68
2023/08/11 07:04:42;;;;;;;19.87;19.17;;;22.10;99.90;;;;;;5069522;28;20577;-68
2023/08/11 07:07:09;;;;;;;17.42;16.83;;;22.10;99.90;;;;;;5056506;28;20291;-67
2023/08/11 07:09:37;;;;;;;21.27;20.57;;;22.10;99.90;;;;;;5052722;28;20769;-66
2023/08/11 07:12:04;;;;;;;19.73;19.02;;;22.20;99.90;;;;;;5053653;28;20220;-68
2023/08/11 07:14:31;;;;;;;19.08;18.42;;;22.00;99.90;;;;;;5053184;28;20227;-66
2023/08/11 07:16:58;;;;;;;17.33;16.73;;;22.20;99.90;;;;;;5053092;28;20200;-67
2023/08/11 07:19:25;;;;;;;17.20;16.60;;;22.30;99.90;;;;;;5052861;28;20631;-66
2023/08/11 07:21:52;;;;;;;19.52;18.83;;;22.50;99.90;;;;;;5052598;28;20234;-69
2023/08/11 07:24:18;;;;;;;21.30;20.55;;;22.60;99.90;;;;;;5053703;28;20204;-65
2023/08/11 07:26:47;;;;;;;14.70;14.20;;;22.70;99.90;;;;;;5052516;28;20671;-68
2023/08/11 07:29:14;;;;;;;22.33;21.53;;;22.80;99.90;;;;;;5052293;28;20214;-67
2023/08/11 07:31:41;;;;;;;18.67;18.02;;;22.70;99.90;;;;;;5052545;28;20317;-66
2023/08/11 07:34:08;;;;;;;17.70;17.10;;;22.60;99.90;;;;;;5052473;28;20283;-66
2023/08/11 07:36:34;;;;;;;23.07;22.27;;;22.80;99.90;;;;;;5050740;28;20204;-67
2023/08/11 07:39:01;;;;;;;20.77;20.08;;;22.80;99.90;;;;;;5050557;28;20560;-66
2023/08/11 07:41:28;;;;;;;22.17;21.37;;;22.90;99.90;;;;;;5051800;28;20224;-70
2023/08/11 07:43:56;;;;;;;19.70;19.00;;;23.10;99.90;;;;;;5052348;28;20228;-66
2023/08/11 07:46:23;;;;;;;22.08;21.27;;;23.00;99.90;;;;;;5053565;28;20239;-68
2023/08/11 07:48:50;;;;;;;19.53;18.73;;;23.20;99.90;;;;;;5052643;28;20298;-66
2023/08/11 07:51:17;;;;;;;30.57;29.47;;;23.10;99.90;;;;;;5056185;28;20255;-66
2023/08/11 07:53:44;;;;;;;20.13;19.42;;;23.20;99.90;;;;;;5055692;28;20206;-64
2023/08/11 07:56:11;;;;;;;20.87;20.17;;;23.20;99.90;;;;;;5053750;28;20216;-66
2023/08/11 07:58:38;;;;;;;20.77;20.07;;;23.40;99.90;;;;;;5053524;28;20796;-67
2023/08/11 08:01:08;;;;;;;21.85;21.08;;;23.60;99.90;;;;;;5052699;28;20670;-66
2023/08/11 08:03:35;;;;;;;17.92;17.33;;;23.70;99.90;;;;;;5060738;28;20232;-66
2023/08/11 08:06:04;;;;;;;21.60;20.88;;;23.70;99.90;;;;;;5064863;28;20232;-66
2023/08/11 08:08:31;;;;;;;23.65;22.75;;;23.80;99.90;;;;;;5053309;28;20291;-68
2023/08/11 08:10:58;;;;;;;19.45;18.75;;;23.80;99.90;;;;;;5052092;28;20207;-66
2023/08/11 08:13:25;;;;;;;21.73;20.95;;;23.80;99.90;;;;;;5052933;28;20200;-69
2023/08/11 08:15:52;;;;;;;17.73;17.13;;;23.90;99.90;;;;;;5051857;28;20681;-68
2023/08/11 08:18:21;;;;;;;22.20;21.40;;;24.00;99.90;;;;;;5051743;28;20245;-65
2023/08/11 08:20:47;;;;;;;20.10;19.40;;;24.10;99.90;;;;;;5051498;28;20708;-69
2023/08/11 08:23:14;;;;;;;21.35;20.63;;;24.20;99.90;;;;;;5077190;22;20235;-63
2023/08/11 08:25:41;;;;;;;21.58;20.58;;;24.30;99.90;;;;;;5051105;28;20230;-64
2023/08/11 08:28:08;;;;;;;17.90;17.30;;;24.40;99.90;;;;;;5050984;28;20210;-63
2023/08/11 08:30:35;;;;;;;18.02;17.42;;;24.40;99.90;;;;;;5050528;28;20210;-65
2023/08/11 08:33:02;;;;;;;34.28;32.85;;;24.50;99.90;;;;;;5050727;28;20256;-65
2023/08/11 08:35:30;;;;;;;21.77;21.02;;;24.60;99.90;;;;;;5050739;28;20298;-62
2023/08/11 08:37:57;;;;;;;20.02;19.33;;;24.60;99.90;;;;;;5050954;28;20646;-62
2023/08/11 08:40:25;;;;;;;22.27;21.47;;;24.70;99.90;;;;;;5050230;28;20235;-64
2023/08/11 08:42:52;;;;;;;16.85;16.25;;;24.80;99.90;;;;;;5050481;28;20236;-63
2023/08/11 08:45:19;;;;;;;21.93;21.17;;;24.90;99.90;;;;;;5050229;28;20212;-63
2023/08/11 08:47:48;;;;;;;20.92;20.15;;;24.90;99.90;;;;;;5051172;28;20637;-62
2023/08/11 08:50:16;;;;;;;34.10;32.80;;;24.80;99.90;;;;;;5057022;28;20212;-64
2023/08/11 08:52:44;;;;;;;26.43;25.53;;;25.00;99.90;;;;;;5053888;28;20705;-65
2023/08/11 08:55:12;;;;;;;31.33;30.17;;;25.00;99.90;;;;;;5052603;28;20295;-63
2023/08/11 08:57:40;;;;;;;24.10;23.25;;;25.10;99.90;;;;;;5052043;28;20199;-64
2023/08/11 09:00:08;;;;;;;18.08;17.45;;;25.10;99.90;;;;;;5050474;28;20211;-64
2023/08/11 09:02:36;;;;;;;17.40;16.80;;;25.10;99.90;;;;;;5050396;28;20224;-64
2023/08/11 09:05:03;;;;;;;18.30;17.58;;;25.10;99.90;;;;;;5051767;28;20208;-65
2023/08/11 09:07:30;;;;;;;14.93;14.40;;;25.30;99.90;;;;;;5051265;28;20239;-64
2023/08/11 09:09:58;;;;;;;13.65;13.15;;;25.50;99.90;;;;;;5050794;28;20294;-64
2023/08/11 09:12:27;;;;;;;14.73;14.23;;;25.70;99.90;;;;;;5051040;28;20226;-63
2023/08/11 09:14:54;;;;;;;13.90;13.40;;;25.90;99.90;;;;;;5050314;28;20253;-63
2023/08/11 09:17:21;;;;;;;15.35;14.85;;;26.00;99.90;;;;;;5050689;28;20204;-65
2023/08/11 09:19:50;;;;;;;11.63;11.23;;;26.00;99.90;;;;;;5049721;28;20222;-64
2023/08/11 09:22:23;;;;;;;13.23;12.73;;;26.10;99.90;;;;;;5048507;28;20239;-63
2023/08/11 09:24:50;;;;;;;13.35;12.90;;;26.20;99.90;;;;;;5049869;28;20709;-64
2023/08/11 09:27:18;;;;;;;13.57;13.13;;;26.40;99.90;;;;;;5050352;28;20208;-64
2023/08/11 09:29:45;;;;;;;13.77;13.27;;;26.50;99.90;;;;;;5048964;28;20694;-64
2023/08/11 09:32:13;;;;;;;16.40;15.82;;;26.70;99.90;;;;;;5049611;28;20721;-63
2023/08/11 09:34:40;;;;;;;17.35;16.75;;;26.70;99.90;;;;;;5049424;28;20311;-63
2023/08/11 09:37:07;;;;;;;14.93;14.43;;;26.80;99.90;;;;;;5049485;28;20235;-62
2023/08/11 09:39:34;;;;;;;18.30;17.70;;;26.80;99.90;;;;;;5048851;28;20268;-64
2023/08/11 09:42:01;;;;;;;16.55;15.95;;;27.00;99.90;;;;;;5049455;28;20228;-64
2023/08/11 09:44:30;;;;;;;16.10;15.52;;;27.20;99.90;;;;;;5050963;28;20231;-63
2023/08/11 09:46:57;;;;;;;18.45;17.83;;;27.30;99.90;;;;;;5054351;28;20287;-64
2023/08/11 09:49:24;;;;;;;14.75;14.25;;;27.60;99.90;;;;;;5052418;28;20207;-64
2023/08/11 09:51:52;;;;;;;14.65;14.15;;;27.60;99.90;;;;;;5054417;28;20223;-63
2023/08/11 09:54:20;;;;;;;14.40;13.90;;;27.70;99.90;;;;;;5051215;28;20200;-64
2023/08/11 09:56:46;;;;;;;14.57;14.07;;;27.70;99.90;;;;;;5050294;28;20214;-63
2023/08/11 09:59:16;;;;;;;15.98;15.43;;;27.80;99.90;;;;;;5049373;28;20242;-62
2023/08/11 10:01:45;;;;;;;15.30;14.77;;;27.90;99.90;;;;;;5049208;28;20317;-64
2023/08/11 10:04:18;;;;;;;15.32;14.73;;;27.80;99.90;;;;;;5049349;28;20227;-65
2023/08/11 10:06:51;;;;;;;14.63;14.13;;;27.90;99.90;;;;;;5049205;28;20307;-62
2023/08/11 10:09:22;;;;;;;16.73;16.13;;;27.80;99.90;;;;;;5048209;28;20203;-63
2023/08/11 10:11:50;;;;;;;14.98;14.27;;;28.00;99.90;;;;;;5049387;28;20231;-63
2023/08/11 10:14:20;;;;;;;14.77;14.27;;;28.10;99.90;;;;;;5063469;28;20611;-63
2023/08/11 10:16:48;;;;;;;13.95;13.45;;;28.20;99.90;;;;;;5051936;28;20206;-64
2023/08/11 10:19:15;;;;;;;14.57;14.07;;;28.10;99.90;;;;;;5049489;28;20291;-64
2023/08/11 10:21:42;;;;;;;13.50;13.00;;;28.20;99.90;;;;;;5055632;28;20287;-65
2023/08/11 10:24:10;;;;;;;11.68;11.27;;;28.20;99.90;;;;;;5050484;28;20574;-64
2023/08/11 10:26:38;;;;;;;10.88;10.48;;;27.90;99.90;;;;;;5049367;28;20215;-63
2023/08/11 10:29:05;;;;;;;12.00;11.60;;;28.10;99.90;;;;;;5048011;28;20281;-64
2023/08/11 10:31:32;;;;;;;11.20;10.80;;;28.30;99.90;;;;;;5051010;28;20315;-65
2023/08/11 10:34:06;;;;;;;11.35;10.95;;;28.40;99.90;;;;;;5057023;28;20200;-64
2023/08/11 10:36:33;;;;;;;11.38;10.90;;;28.60;99.90;;;;;;5054592;28;20273;-62
2023/08/11 10:39:01;;;;;;;11.55;11.15;;;28.60;99.90;;;;;;5053923;28;20210;-66
2023/08/11 10:41:29;;;;;;;10.85;10.48;;;28.80;99.90;;;;;;5053678;28;20208;-64
2023/08/11 10:43:57;;;;;;;11.68;11.27;;;28.90;99.90;;;;;;5053973;28;20311;-62
2023/08/11 10:46:26;;;;;;;11.85;11.45;;;29.10;99.90;;;;;;5054408;28;20215;-62
2023/08/11 10:48:53;;;;;;;11.80;11.40;;;29.10;99.90;;;;;;5054598;28;20683;-62
2023/08/11 10:51:32;;;;;;;11.60;11.20;;;29.10;99.90;;;;;;5052845;28;20204;-63
2023/08/11 10:54:09;;;;;;;11.25;10.85;;;29.20;99.90;;;;;;5053738;28;20226;-64
2023/08/11 10:56:38;;;;;;;11.07;10.68;;;29.30;99.90;;;;;;5052830;28;20587;-62
2023/08/11 10:59:12;;;;;;;11.48;11.07;;;29.40;99.90;;;;;;5051652;28;20212;-66
2023/08/11 11:01:41;;;;;;;11.18;10.77;;;29.50;99.90;;;;;;5052230;28;20230;-64
2023/08/11 11:04:09;;;;;;;10.93;10.52;;;29.60;99.90;;;;;;5052026;28;20710;-63
2023/08/11 11:06:37;;;;;;;10.82;10.43;;;29.70;99.90;;;;;;5052369;28;20262;-65
2023/08/11 11:09:04;;;;;;;10.90;10.50;;;29.80;99.90;;;;;;5051914;28;20204;-65
2023/08/11 11:11:32;;;;;;;10.05;9.75;;;29.90;99.90;;;;;;5052038;28;20227;-64
2023/08/11 11:13:59;;;;;;;9.80;9.50;;;30.00;99.90;;;;;;5051878;28;20200;-63
2023/08/11 11:16:26;;;;;;;10.50;10.10;;;30.10;99.90;;;;;;5052397;28;20317;-65
2023/08/11 11:18:53;;;;;;;10.48;10.07;;;30.10;99.90;;;;;;5051858;28;20523;-64
2023/08/11 11:21:20;;;;;;;9.80;9.50;;;29.90;99.90;;;;;;5051403;28;20226;-64
2023/08/11 11:23:50;;;;;;;10.23;9.82;;;30.00;99.90;;;;;;5050336;28;20560;-64
2023/08/11 11:26:22;;;;;;;10.30;9.90;;;29.90;99.90;;;;;;5051989;28;20238;-64
2023/08/11 11:28:49;;;;;;;10.57;10.18;;;30.00;99.90;;;;;;5051939;28;20214;-64
2023/08/11 11:31:16;;;;;;;10.40;10.10;;;29.90;99.90;;;;;;5051246;28;20595;-63
2023/08/11 11:33:43;;;;;;;10.55;10.15;;;29.90;99.90;;;;;;5051432;28;20199;-63
2023/08/11 11:36:11;;;;;;;10.10;9.80;;;30.10;99.90;;;;;;5053052;28;20666;-63
2023/08/11 11:38:38;;;;;;;9.50;9.20;;;30.10;99.90;;;;;;5052884;28;20203;-65
2023/08/11 11:41:10;;;;;;;11.00;10.60;;;30.10;99.90;;;;;;5050816;28;20200;-64
2023/08/11 11:43:37;;;;;;;9.77;9.48;;;30.00;99.90;;;;;;5051645;28;20307;-66
2023/08/11 11:46:04;;;;;;;9.52;9.23;;;30.00;99.90;;;;;;5051386;28;20207;-64
2023/08/11 11:48:37;;;;;;;9.80;9.50;;;30.20;99.90;;;;;;5053262;28;20230;-65
2023/08/11 11:51:03;;;;;;;10.20;9.82;;;30.40;99.90;;;;;;5051043;28;20210;-63
2023/08/11 11:53:31;;;;;;;10.40;9.90;;;30.30;99.90;;;;;;5052092;28;20230;-66
2023/08/11 11:55:58;;;;;;;9.63;9.30;;;30.30;99.90;;;;;;5052694;28;20208;-63
2023/08/11 11:58:26;;;;;;;10.05;9.75;;;30.50;99.90;;;;;;5051790;28;20584;-66
2023/08/11 12:00:53;;;;;;;10.30;9.90;;;30.60;99.90;;;;;;5050485;28;20302;-65
2023/08/11 12:03:22;;;;;;;9.68;9.27;;;30.80;99.90;;;;;;5050981;28;20282;-63
2023/08/11 12:05:48;;;;;;;9.30;9.00;;;30.90;99.90;;;;;;5051154;28;20212;-62
2023/08/11 12:08:20;;;;;;;9.55;9.25;;;30.90;99.90;;;;;;5051435;28;20208;-64
2023/08/11 12:10:48;;;;;;;10.00;9.70;;;31.00;99.90;;;;;;5050569;28;20211;-63
2023/08/11 12:13:15;;;;;;;8.93;8.63;;;30.70;99.90;;;;;;5051214;28;20780;-64
2023/08/11 12:15:43;;;;;;;9.70;9.40;;;30.80;99.90;;;;;;5050823;28;20208;-64
2023/08/11 12:18:12;;;;;;;9.50;9.20;;;31.10;99.90;;;;;;5051341;28;20212;-64
2023/08/11 12:20:40;;;;;;;9.60;9.30;;;31.20;99.90;;;;;;5050089;28;20295;-65
2023/08/11 12:23:07;;;;;;;9.70;9.40;;;31.10;99.90;;;;;;5050651;28;20235;-65
2023/08/11 12:25:34;;;;;;;9.68;9.38;;;31.10;99.90;;;;;;5049679;28;20231;-64
2023/08/11 12:28:01;;;;;;;9.88;9.57;;;31.20;99.90;;;;;;5050923;28;20204;-63
2023/08/11 12:30:28;;;;;;;9.40;9.10;;;31.20;99.90;;;;;;5050330;28;20203;-64